createdAt,value
2017-06-28T00:02:23.214Z,7.23
2017-06-28T00:04:52.929Z,5.93
2017-06-28T00:07:25.689Z,7.00
2017-06-28T00:09:59.289Z,7.93
2017-06-28T00:12:29.042Z,6.53
2017-06-28T00:14:58.839Z,6.67
2017-06-28T00:17:28.626Z,6.77
2017-06-28T00:19:58.374Z,8.40
2017-06-28T00:22:28.077Z,6.67
2017-06-28T00:24:57.826Z,7.20
2017-06-28T00:27:27.593Z,6.73
2017-06-28T00:29:57.383Z,6.60
2017-06-28T00:32:27.154Z,6.30
2017-06-28T00:34:56.969Z,6.40
2017-06-28T00:37:26.688Z,6.43
2017-06-28T00:39:56.376Z,6.60
2017-06-28T00:42:26.233Z,6.23
2017-06-28T00:44:56.100Z,11.07
2017-06-28T00:47:25.812Z,7.00
2017-06-28T00:49:55.578Z,7.00
2017-06-28T00:52:26.109Z,7.10
2017-06-28T00:54:56.598Z,7.00
2017-06-28T00:57:26.337Z,8.00
2017-06-28T00:59:56.133Z,7.03
2017-06-28T01:02:25.839Z,6.97
2017-06-28T01:04:55.511Z,6.70
2017-06-28T01:07:25.279Z,6.10
2017-06-28T01:09:54.707Z,6.27
2017-06-28T01:12:25.096Z,7.50
2017-06-28T01:14:54.824Z,6.03
2017-06-28T01:17:24.560Z,5.83
2017-06-28T01:19:54.894Z,5.70
2017-06-28T01:22:24.662Z,6.50
2017-06-28T01:24:54.991Z,7.17
2017-06-28T01:27:24.802Z,6.13
2017-06-28T01:29:55.457Z,6.20
2017-06-28T01:32:25.195Z,6.37
2017-06-28T01:34:54.891Z,8.13
2017-06-28T01:37:24.594Z,7.17
2017-06-28T01:39:54.338Z,6.23
2017-06-28T01:42:24.150Z,6.57
2017-06-28T01:44:53.954Z,6.17
2017-06-28T01:47:24.361Z,7.33
2017-06-28T01:49:54.646Z,7.07
2017-06-28T01:52:23.693Z,6.00
2017-06-28T01:54:53.453Z,6.97
2017-06-28T01:57:23.526Z,6.63
2017-06-28T01:59:52.936Z,7.57
2017-06-28T02:02:22.624Z,8.00
2017-06-28T02:04:52.383Z,7.03
2017-06-28T02:07:22.850Z,6.30
2017-06-28T02:09:53.455Z,6.53
2017-06-28T02:12:23.301Z,7.07
2017-06-28T02:14:53.062Z,7.90
2017-06-28T02:17:22.741Z,7.60
2017-06-28T02:19:52.465Z,8.00
2017-06-28T02:22:22.218Z,6.60
2017-06-28T02:24:52.045Z,8.00
2017-06-28T02:27:22.366Z,6.70
2017-06-28T02:29:52.098Z,7.57
2017-06-28T02:32:23.152Z,7.47
2017-06-28T02:34:52.997Z,7.33
2017-06-28T02:37:22.826Z,7.40
2017-06-28T02:39:52.562Z,7.30
2017-06-28T02:42:22.458Z,8.30
2017-06-28T02:44:52.263Z,6.67
2017-06-28T02:47:22.595Z,8.10
2017-06-28T02:49:52.262Z,7.83
2017-06-28T02:52:22.042Z,8.83
2017-06-28T02:54:51.760Z,7.03
2017-06-28T02:57:21.445Z,7.80
2017-06-28T02:59:51.157Z,8.67
2017-06-28T03:02:20.826Z,8.17
2017-06-28T03:04:50.611Z,7.03
2017-06-28T03:07:25.902Z,7.80
2017-06-28T03:09:55.586Z,7.13
2017-06-28T03:12:25.326Z,7.40
2017-06-28T03:14:55.113Z,7.00
2017-06-28T03:17:24.789Z,8.20
2017-06-28T03:19:55.114Z,8.37
2017-06-28T03:22:24.856Z,10.07
2017-06-28T03:24:54.691Z,6.90
2017-06-28T03:27:24.478Z,8.60
2017-06-28T03:29:54.177Z,9.80
2017-06-28T03:32:23.924Z,7.63
2017-06-28T03:34:54.371Z,7.63
2017-06-28T03:37:24.181Z,7.93
2017-06-28T03:39:54.583Z,7.83
2017-06-28T03:42:24.413Z,8.03
2017-06-28T03:44:54.211Z,7.50
2017-06-28T03:47:23.918Z,7.93
2017-06-28T03:49:53.638Z,7.23
2017-06-28T03:52:23.421Z,7.53
2017-06-28T03:54:53.152Z,8.50
2017-06-28T03:57:23.522Z,12.43
2017-06-28T03:59:53.309Z,7.83
2017-06-28T04:02:23.006Z,11.63
2017-06-28T04:04:54.177Z,7.90
2017-06-28T04:07:24.275Z,7.53
2017-06-28T04:09:53.974Z,7.30
2017-06-28T04:12:23.809Z,7.57
2017-06-28T04:14:53.281Z,8.10
2017-06-28T04:17:23.822Z,7.37
2017-06-28T04:19:53.587Z,7.30
2017-06-28T04:22:23.459Z,7.00
2017-06-28T04:24:53.199Z,8.07
2017-06-28T04:27:22.891Z,8.97
2017-06-28T04:29:53.510Z,7.53
2017-06-28T04:32:23.732Z,7.97
2017-06-28T04:34:53.463Z,8.60
2017-06-28T04:37:24.937Z,8.40
2017-06-28T04:39:54.713Z,7.53
2017-06-28T04:42:24.390Z,8.10
2017-06-28T04:44:54.404Z,9.57
2017-06-28T04:47:24.106Z,8.50
2017-06-28T04:49:53.829Z,9.03
2017-06-28T04:52:23.674Z,8.63
2017-06-28T04:54:53.441Z,8.47
2017-06-28T04:57:24.305Z,8.60
2017-06-28T04:59:54.107Z,9.10
2017-06-28T05:02:23.845Z,9.97
2017-06-28T05:04:54.261Z,9.67
2017-06-28T05:07:23.930Z,9.77
2017-06-28T05:09:53.631Z,9.20
2017-06-28T05:12:23.866Z,9.30
2017-06-28T05:14:53.641Z,9.87
2017-06-28T05:17:23.410Z,9.23
2017-06-28T05:22:53.520Z,10.03
2017-06-28T05:25:23.294Z,9.40
2017-06-28T05:27:56.011Z,10.37
2017-06-28T05:30:27.895Z,9.97
2017-06-28T05:33:01.187Z,11.07
2017-06-28T05:35:32.776Z,9.83
2017-06-28T05:38:03.650Z,10.97
2017-06-28T05:40:34.083Z,10.57
2017-06-28T05:43:06.650Z,12.53
2017-06-28T05:45:38.717Z,12.23
2017-06-28T05:48:08.086Z,9.70
2017-06-28T05:50:37.909Z,11.27
2017-06-28T05:53:07.609Z,11.53
2017-06-28T05:55:37.409Z,10.27
2017-06-28T05:58:07.142Z,10.60
2017-06-28T06:00:36.661Z,11.60
2017-06-28T06:03:06.396Z,12.03
2017-06-28T06:05:36.073Z,11.47
2017-06-28T06:08:05.804Z,11.20
2017-06-28T06:10:35.529Z,12.43
2017-06-28T06:13:05.254Z,11.57
2017-06-28T06:15:35.009Z,12.17
2017-06-28T06:18:04.714Z,11.40
2017-06-28T06:20:34.466Z,12.93
2017-06-28T06:23:04.187Z,12.60
2017-06-28T06:25:33.564Z,12.67
2017-06-28T06:28:03.353Z,11.83
2017-06-28T06:30:33.087Z,11.80
2017-06-28T06:33:02.849Z,12.50
2017-06-28T06:35:32.584Z,12.30
2017-06-28T06:38:02.310Z,11.63
2017-06-28T06:40:32.053Z,12.03
2017-06-28T06:43:01.777Z,12.07
2017-06-28T06:45:38.421Z,11.80
2017-06-28T06:48:15.336Z,11.30
2017-06-28T06:50:47.549Z,14.80
2017-06-28T06:53:18.831Z,12.67
2017-06-28T06:55:50.145Z,13.10
2017-06-28T06:58:20.542Z,11.50
2017-06-28T07:00:51.566Z,11.27
2017-06-28T07:03:23.278Z,11.40
2017-06-28T07:05:56.108Z,11.90
2017-06-28T07:08:26.948Z,12.87
2017-06-28T07:10:57.898Z,12.10
2017-06-28T07:13:28.715Z,12.53
2017-06-28T07:15:59.541Z,11.73
2017-06-28T07:18:29.871Z,11.50
2017-06-28T07:21:00.076Z,10.97
2017-06-28T07:23:30.528Z,12.03
2017-06-28T07:26:01.217Z,12.43
2017-06-28T07:28:32.005Z,12.67
2017-06-28T07:31:04.418Z,13.03
2017-06-28T07:33:36.481Z,10.83
2017-06-28T07:36:08.773Z,12.50
2017-06-28T07:38:40.673Z,11.00
2017-06-28T07:41:11.431Z,12.77
2017-06-28T07:43:42.562Z,12.17
2017-06-28T07:46:14.680Z,11.10
2017-06-28T07:48:46.534Z,11.17
2017-06-28T07:51:17.447Z,10.90
2017-06-28T07:53:48.364Z,10.90
2017-06-28T07:56:19.420Z,10.53
2017-06-28T07:58:49.122Z,11.33
2017-06-28T08:01:18.836Z,10.47
2017-06-28T08:03:48.582Z,10.33
2017-06-28T08:06:18.306Z,12.50
2017-06-28T08:08:48.166Z,10.10
2017-06-28T08:11:17.951Z,11.97
2017-06-28T08:13:47.702Z,11.57
2017-06-28T08:16:17.793Z,11.23
2017-06-28T08:18:47.513Z,10.47
2017-06-28T08:21:17.272Z,10.80
2017-06-28T08:23:47.029Z,11.27
2017-06-28T08:26:16.784Z,11.07
2017-06-28T08:28:46.554Z,11.40
2017-06-28T08:31:16.269Z,11.93
2017-06-28T08:33:46.059Z,11.20
2017-06-28T08:36:15.782Z,12.30
2017-06-28T08:38:45.914Z,11.43
2017-06-28T08:41:15.675Z,11.50
2017-06-28T08:43:45.376Z,11.93
2017-06-28T08:46:15.180Z,12.17
2017-06-28T08:48:44.982Z,12.87
2017-06-28T08:51:14.773Z,12.00
2017-06-28T08:53:44.536Z,10.00
2017-06-28T08:56:14.307Z,12.33
2017-06-28T08:58:44.095Z,9.97
2017-06-28T09:01:13.896Z,11.83
2017-06-28T09:03:43.635Z,10.77
2017-06-28T09:06:13.437Z,11.97
2017-06-28T09:08:43.151Z,11.57
2017-06-28T09:11:12.983Z,11.40
2017-06-28T09:13:42.674Z,10.80
2017-06-28T09:16:12.402Z,12.03
2017-06-28T09:18:42.128Z,10.43
2017-06-28T09:21:11.824Z,9.97
2017-06-28T09:23:41.613Z,11.10
2017-06-28T09:26:11.312Z,11.13
2017-06-28T09:28:41.041Z,11.87
2017-06-28T09:31:10.793Z,10.23
2017-06-28T09:33:40.505Z,11.77
2017-06-28T09:36:10.261Z,11.03
2017-06-28T09:38:39.976Z,10.43
2017-06-28T09:41:09.682Z,10.60
2017-06-28T09:43:39.416Z,10.33
2017-06-28T09:46:09.123Z,10.70
2017-06-28T09:48:38.931Z,12.60
2017-06-28T09:51:08.623Z,12.03
2017-06-28T09:53:38.389Z,16.87
2017-06-28T09:56:08.122Z,16.30
2017-06-28T09:58:37.886Z,14.83
2017-06-28T10:01:07.646Z,16.43
2017-06-28T10:03:37.370Z,21.30
2017-06-28T10:06:07.079Z,14.13
2017-06-28T10:08:36.815Z,13.47
2017-06-28T10:11:07.269Z,12.70
2017-06-28T10:13:37.142Z,12.87
2017-06-28T10:16:06.854Z,12.97
2017-06-28T10:18:36.555Z,14.33
2017-06-28T10:21:06.282Z,13.67
2017-06-28T10:23:36.007Z,14.87
2017-06-28T10:26:05.801Z,15.43
2017-06-28T10:28:35.525Z,16.00
2017-06-28T10:31:05.271Z,16.60
2017-06-28T10:33:35.000Z,16.37
2017-06-28T10:36:04.711Z,14.30
2017-06-28T10:38:34.470Z,15.70
2017-06-28T10:41:04.210Z,16.10
2017-06-28T10:43:33.989Z,15.43
2017-06-28T10:46:03.742Z,16.30
2017-06-28T10:48:33.469Z,14.77
2017-06-28T10:51:04.908Z,15.47
2017-06-28T10:53:34.634Z,14.37
2017-06-28T10:56:04.356Z,16.47
2017-06-28T10:58:34.106Z,15.70
2017-06-28T11:01:03.850Z,15.07
2017-06-28T11:03:33.629Z,14.90
2017-06-28T11:06:03.371Z,16.27
2017-06-28T11:08:33.116Z,14.70
2017-06-28T11:11:02.848Z,14.47
2017-06-28T11:13:32.600Z,14.43
2017-06-28T11:16:02.366Z,15.53
2017-06-28T11:18:32.070Z,15.40
2017-06-28T11:21:01.803Z,16.63
2017-06-28T11:23:31.558Z,15.43
2017-06-28T11:26:01.294Z,17.23
2017-06-28T11:28:31.048Z,15.67
2017-06-28T11:31:01.325Z,15.30
2017-06-28T11:33:31.110Z,16.10
2017-06-28T11:36:00.835Z,17.63
2017-06-28T11:38:30.562Z,18.97
2017-06-28T11:41:00.305Z,17.30
2017-06-28T11:43:30.033Z,16.53
2017-06-28T11:45:59.669Z,15.47
2017-06-28T11:48:29.379Z,15.47
2017-06-28T11:50:59.104Z,16.33
2017-06-28T11:53:28.902Z,16.60
2017-06-28T11:55:59.424Z,17.10
2017-06-28T11:58:29.191Z,16.80
2017-06-28T12:00:58.891Z,16.60
2017-06-28T12:03:28.639Z,23.60
2017-06-28T12:05:58.397Z,15.53
2017-06-28T12:08:28.098Z,20.83
2017-06-28T12:10:57.866Z,18.30
2017-06-28T12:13:27.590Z,16.63
2017-06-28T12:15:57.298Z,14.53
2017-06-28T12:18:31.733Z,11.80
2017-06-28T12:21:01.443Z,11.83
2017-06-28T12:23:31.188Z,13.60
2017-06-28T12:26:00.936Z,11.97
2017-06-28T12:28:30.650Z,11.77
2017-06-28T12:31:00.372Z,11.47
2017-06-28T12:33:30.204Z,10.63
2017-06-28T12:35:59.964Z,9.73
2017-06-28T12:38:29.673Z,10.00
2017-06-28T12:40:59.393Z,10.27
2017-06-28T12:43:29.146Z,9.80
2017-06-28T12:45:58.839Z,10.00
2017-06-28T12:48:28.601Z,9.90
2017-06-28T12:50:58.299Z,8.20
2017-06-28T12:53:28.033Z,6.80
2017-06-28T12:55:57.770Z,6.50
2017-06-28T12:58:27.483Z,4.33
2017-06-28T13:00:57.234Z,2.47
2017-06-28T13:03:26.944Z,1.50
2017-06-28T13:05:56.653Z,1.33
2017-06-28T13:08:26.451Z,1.37
2017-06-28T13:10:56.145Z,1.17
2017-06-28T13:19:26.740Z,1.67
2017-06-28T13:21:56.464Z,2.00
2017-06-28T13:24:26.161Z,1.70
2017-06-28T13:26:55.900Z,1.20
2017-06-28T13:29:25.626Z,1.63
2017-06-28T13:31:55.393Z,1.93
2017-06-28T13:34:25.164Z,1.83
2017-06-28T13:36:54.869Z,1.80
2017-06-28T13:39:24.589Z,2.60
2017-06-28T13:41:54.308Z,2.23
2017-06-28T13:44:26.870Z,2.07
2017-06-28T13:46:56.585Z,1.47
2017-06-28T13:49:26.305Z,1.83
2017-06-28T13:51:56.022Z,2.07
2017-06-28T13:54:25.733Z,1.97
2017-06-28T13:56:55.500Z,1.60
2017-06-28T13:59:25.183Z,2.63
2017-06-28T14:01:54.857Z,2.30
2017-06-28T14:04:24.591Z,3.73
2017-06-28T14:06:54.289Z,2.37
2017-06-28T14:09:24.066Z,1.70
2017-06-28T14:11:53.786Z,2.57
2017-06-28T14:14:23.512Z,1.93
2017-06-28T14:16:53.247Z,2.10
2017-06-28T14:19:22.978Z,2.20
2017-06-28T14:21:52.755Z,2.47
2017-06-28T14:24:28.443Z,2.23
2017-06-28T14:26:58.187Z,2.30
2017-06-28T14:29:27.880Z,1.90
2017-06-28T14:31:57.565Z,2.30
2017-06-28T14:34:27.327Z,2.17
2017-06-28T14:36:57.040Z,2.63
2017-06-28T14:39:26.804Z,2.43
2017-06-28T14:41:56.523Z,1.80
2017-06-28T14:44:26.221Z,2.00
2017-06-28T14:46:56.208Z,2.20
2017-06-28T14:49:38.808Z,2.40
2017-06-28T14:52:08.724Z,1.90
2017-06-28T14:54:38.515Z,2.30
2017-06-28T14:57:08.574Z,4.23
2017-06-28T14:59:38.754Z,1.97
2017-06-28T15:02:08.488Z,1.90
2017-06-28T15:04:38.309Z,2.33
2017-06-28T15:07:08.015Z,2.30
2017-06-28T15:09:37.760Z,1.80
2017-06-28T15:12:08.337Z,1.60
2017-06-28T15:14:38.694Z,1.77
2017-06-28T15:17:09.054Z,2.03
2017-06-28T15:19:38.810Z,2.57
2017-06-28T15:22:09.814Z,1.90
2017-06-28T15:24:41.948Z,1.87
2017-06-28T15:27:14.834Z,1.83
2017-06-28T15:29:47.171Z,1.97
2017-06-28T15:32:18.392Z,2.40
2017-06-28T15:34:50.328Z,1.60
2017-06-28T15:37:20.915Z,2.30
2017-06-28T15:39:52.626Z,1.50
2017-06-28T15:42:23.306Z,1.80
2017-06-28T15:44:55.050Z,2.27
2017-06-28T15:47:35.509Z,2.37
2017-06-28T15:50:07.100Z,2.90
2017-06-28T15:52:38.795Z,2.20
2017-06-28T15:55:10.140Z,2.10
2017-06-28T15:57:41.722Z,2.67
2017-06-28T16:00:11.696Z,2.47
2017-06-28T16:02:43.389Z,3.97
2017-06-28T16:05:15.359Z,2.23
2017-06-28T16:07:46.920Z,2.50
2017-06-28T16:10:20.503Z,3.63
2017-06-28T16:12:52.312Z,2.60
2017-06-28T16:15:22.897Z,2.83
2017-06-28T16:17:54.299Z,2.20
2017-06-28T16:20:26.889Z,1.90
2017-06-28T16:22:56.867Z,2.00
2017-06-28T16:25:26.880Z,2.80
2017-06-28T16:27:56.958Z,2.00
2017-06-28T16:30:28.490Z,2.60
2017-06-28T16:32:59.041Z,2.50
2017-06-28T16:35:30.723Z,2.53
2017-06-28T16:38:04.213Z,2.33
2017-06-28T16:40:35.076Z,2.60
2017-06-28T16:43:05.404Z,2.70
2017-06-28T16:45:37.295Z,3.13
2017-06-28T16:48:08.632Z,2.80
2017-06-28T16:50:38.477Z,2.50
2017-06-28T16:53:09.757Z,2.60
2017-06-28T16:55:40.574Z,2.70
2017-06-28T16:58:12.254Z,2.80
2017-06-28T17:00:43.579Z,3.10
2017-06-28T17:03:14.877Z,2.90
2017-06-28T17:05:46.237Z,3.10
2017-06-28T17:08:18.040Z,4.07
2017-06-28T17:10:54.035Z,2.60
2017-06-28T17:13:24.607Z,2.60
2017-06-28T17:15:55.623Z,3.70
2017-06-28T17:18:26.605Z,2.60
2017-06-28T17:20:56.438Z,3.37
2017-06-28T17:23:26.161Z,3.20
2017-06-28T17:25:55.914Z,3.00
2017-06-28T17:28:25.639Z,3.13
2017-06-28T17:30:55.495Z,2.80
2017-06-28T17:33:25.262Z,3.40
2017-06-28T17:35:55.029Z,4.60
2017-06-28T17:38:24.782Z,3.17
2017-06-28T17:40:54.488Z,3.33
2017-06-28T17:43:24.249Z,3.00
2017-06-28T17:45:53.957Z,2.43
2017-06-28T17:48:23.677Z,2.90
2017-06-28T17:50:54.544Z,2.93
2017-06-28T17:53:24.470Z,3.10
2017-06-28T17:55:54.221Z,2.80
2017-06-28T17:58:24.033Z,2.83
2017-06-28T18:00:53.786Z,3.90
2017-06-28T18:03:24.731Z,2.80
2017-06-28T18:05:56.392Z,3.03
2017-06-28T18:08:28.383Z,3.33
2017-06-28T18:10:59.859Z,2.77
2017-06-28T18:13:30.647Z,2.40
2017-06-28T18:16:03.100Z,2.33
2017-06-28T18:18:32.901Z,2.60
2017-06-28T18:21:04.575Z,3.13
2017-06-28T18:23:38.519Z,2.30
2017-06-28T18:26:11.519Z,1.97
2017-06-28T18:28:43.649Z,2.87
2017-06-28T18:31:16.411Z,2.80
2017-06-28T18:33:49.558Z,2.50
2017-06-28T18:36:20.877Z,2.40
2017-06-28T18:38:52.700Z,2.13
2017-06-28T18:41:23.374Z,2.83
2017-06-28T18:43:55.151Z,2.60
2017-06-28T18:46:28.142Z,2.30
2017-06-28T18:49:00.418Z,2.77
2017-06-28T18:51:32.316Z,2.30
2017-06-28T18:54:04.093Z,2.00
2017-06-28T18:56:35.042Z,2.30
2017-06-28T18:59:07.679Z,2.30
2017-06-28T19:01:41.367Z,2.17
2017-06-28T19:04:14.706Z,2.10
2017-06-28T19:06:46.469Z,2.57
2017-06-28T19:09:17.664Z,2.10
2017-06-28T19:11:49.725Z,2.60
2017-06-28T19:14:22.027Z,2.30
2017-06-28T19:16:59.327Z,2.80
2017-06-28T19:19:30.948Z,2.10
2017-06-28T19:22:03.151Z,1.83
2017-06-28T19:24:35.579Z,2.77
2017-06-28T19:27:07.730Z,2.20
2017-06-28T19:29:39.128Z,2.57
2017-06-28T19:32:10.469Z,2.40
2017-06-28T19:34:40.238Z,2.57
2017-06-28T19:37:10.491Z,2.47
2017-06-28T19:39:40.261Z,3.00
2017-06-28T19:43:39.842Z,2.23
2017-06-28T19:46:09.575Z,2.40
2017-06-28T19:48:40.088Z,2.80
2017-06-28T19:51:12.002Z,2.67
2017-06-28T19:53:44.138Z,3.13
2017-06-28T19:56:16.622Z,2.90
2017-06-28T19:58:49.249Z,3.00
2017-06-28T20:01:23.049Z,3.03
2017-06-28T20:03:54.938Z,2.70
2017-06-28T20:06:28.039Z,3.00
2017-06-28T20:09:01.290Z,7.77
2017-06-28T20:11:35.583Z,2.53
2017-06-28T20:14:09.121Z,3.20
2017-06-28T20:16:42.027Z,2.70
2017-06-28T20:19:15.854Z,3.10
2017-06-28T20:21:49.498Z,3.43
2017-06-28T20:24:22.579Z,2.80
2017-06-28T20:26:55.503Z,3.57
2017-06-28T20:29:28.819Z,3.23
2017-06-28T20:31:59.718Z,3.17
2017-06-28T20:34:30.170Z,3.33
2017-06-28T20:36:59.915Z,2.77
2017-06-28T20:39:29.739Z,3.93
2017-06-28T20:41:59.441Z,3.93
2017-06-28T20:44:29.255Z,2.90
2017-06-28T20:46:59.046Z,3.10
2017-06-28T20:49:28.781Z,2.70
2017-06-28T20:51:58.482Z,3.47
2017-06-28T20:54:28.226Z,3.00
2017-06-28T20:56:58.021Z,3.47
2017-06-28T20:59:27.817Z,7.53
2017-06-28T21:01:57.558Z,4.00
2017-06-28T21:04:27.891Z,4.03
2017-06-28T21:06:57.618Z,4.50
2017-06-28T21:09:27.299Z,4.73
2017-06-28T21:11:57.027Z,4.20
2017-06-28T21:14:26.714Z,6.67
2017-06-28T21:16:56.427Z,4.67
2017-06-28T21:19:26.192Z,4.00
2017-06-28T21:21:56.032Z,4.60
2017-06-28T21:24:32.934Z,4.17
2017-06-28T21:27:02.652Z,4.20
2017-06-28T21:29:33.042Z,4.20
2017-06-28T21:32:02.927Z,4.23
2017-06-28T21:34:32.634Z,4.97
2017-06-28T21:37:02.991Z,3.80
2017-06-28T21:39:32.750Z,3.60
2017-06-28T21:42:02.518Z,10.53
2017-06-28T21:44:32.207Z,5.27
2017-06-28T21:47:02.794Z,5.50
2017-06-28T21:49:32.558Z,5.80
2017-06-28T21:52:02.346Z,4.80
2017-06-28T21:54:32.850Z,5.10
2017-06-28T21:57:02.591Z,4.70
2017-06-28T21:59:32.363Z,5.40
2017-06-28T22:02:02.117Z,5.07
2017-06-28T22:04:31.781Z,4.90
2017-06-28T22:07:02.090Z,5.47
2017-06-28T22:09:31.899Z,7.30
2017-06-28T22:12:01.691Z,7.17
2017-06-28T22:14:31.567Z,7.67
2017-06-28T22:17:00.630Z,7.67
2017-06-28T22:19:39.569Z,6.87
2017-06-28T22:22:09.337Z,7.50
2017-06-28T22:24:39.190Z,6.03
2017-06-28T22:27:09.490Z,7.13
2017-06-28T22:29:39.612Z,7.70
2017-06-28T22:32:09.321Z,7.83
2017-06-28T22:34:39.094Z,7.13
2017-06-28T22:37:08.801Z,6.70
2017-06-28T22:39:38.587Z,7.03
2017-06-28T22:42:08.487Z,7.13
2017-06-28T22:44:38.224Z,7.17
2017-06-28T22:47:07.912Z,7.23
2017-06-28T22:49:37.666Z,6.60
2017-06-28T22:52:07.348Z,7.23
2017-06-28T22:54:37.299Z,6.80
2017-06-28T22:57:07.085Z,6.87
2017-06-28T22:59:37.441Z,6.80
2017-06-28T23:02:07.324Z,6.67
2017-06-28T23:04:37.059Z,7.50
2017-06-28T23:07:06.851Z,7.10
2017-06-28T23:09:36.698Z,6.60
2017-06-28T23:12:06.494Z,6.50
2017-06-28T23:14:36.241Z,6.30
2017-06-28T23:17:05.927Z,5.97
2017-06-28T23:19:36.886Z,6.60
2017-06-28T23:22:06.986Z,6.67
2017-06-28T23:24:36.700Z,5.77
2017-06-28T23:27:06.606Z,6.13
2017-06-28T23:29:36.349Z,6.20
2017-06-28T23:32:06.072Z,6.27
2017-06-28T23:34:35.867Z,7.43
2017-06-28T23:37:05.972Z,7.20
2017-06-28T23:39:35.787Z,9.03
2017-06-28T23:42:05.624Z,9.17
2017-06-28T23:44:35.493Z,8.50
2017-06-28T23:47:05.165Z,8.80
2017-06-28T23:49:34.964Z,8.13
2017-06-28T23:52:04.711Z,8.67
2017-06-28T23:54:34.494Z,8.17
2017-06-28T23:57:04.398Z,7.93
2017-06-28T23:59:34.147Z,8.40
